sensor_id;sensor_type;location;lat;lon;timestamp;P1;durP1;ratioP1;P2;durP2;ratioP2
35679;SDS011;21803;53.586;10.040;2022-10-16T00:01:57;3.22;;;1.45;;
35679;SDS011;21803;53.586;10.040;2022-10-16T00:04:23;1.67;;;1.20;;
35679;SDS011;21803;53.586;10.040;2022-10-16T00:06:48;4.05;;;1.40;;
35679;SDS011;21803;53.586;10.040;2022-10-16T00:09:14;2.35;;;1.42;;
35679;SDS011;21803;53.586;10.040;2022-10-16T00:11:39;2.35;;;1.50;;
35679;SDS011;21803;53.586;10.040;2022-10-16T00:14:07;3.22;;;1.33;;
35679;SDS011;21803;53.586;10.040;2022-10-16T00:16:38;2.85;;;1.45;;
35679;SDS011;21803;53.586;10.040;2022-10-16T00:19:04;4.88;;;1.50;;
35679;SDS011;21803;53.586;10.040;2022-10-16T00:21:30;3.58;;;1.40;;
35679;SDS011;21803;53.586;10.040;2022-10-16T00:23:57;2.65;;;1.20;;
35679;SDS011;21803;53.586;10.040;2022-10-16T00:26:24;1.70;;;1.30;;
35679;SDS011;21803;53.586;10.040;2022-10-16T00:28:51;2.70;;;1.40;;
35679;SDS011;21803;53.586;10.040;2022-10-16T00:31:18;3.15;;;1.27;;
35679;SDS011;21803;53.586;10.040;2022-10-16T00:33:45;1.35;;;1.08;;
35679;SDS011;21803;53.586;10.040;2022-10-16T00:36:12;3.00;;;1.33;;
35679;SDS011;21803;53.586;10.040;2022-10-16T00:38:39;2.38;;;1.30;;
35679;SDS011;21803;53.586;10.040;2022-10-16T00:41:09;2.15;;;1.20;;
35679;SDS011;21803;53.586;10.040;2022-10-16T00:43:41;3.10;;;1.30;;
35679;SDS011;21803;53.586;10.040;2022-10-16T00:46:10;2.55;;;1.35;;
35679;SDS011;21803;53.586;10.040;2022-10-16T00:48:54;1.80;;;1.13;;
35679;SDS011;21803;53.586;10.040;2022-10-16T00:54:04;2.20;;;1.40;;
35679;SDS011;21803;53.586;10.040;2022-10-16T00:56:36;1.48;;;1.27;;
35679;SDS011;21803;53.586;10.040;2022-10-16T00:59:03;1.40;;;1.20;;
35679;SDS011;21803;53.586;10.040;2022-10-16T01:01:32;1.98;;;1.10;;
35679;SDS011;21803;53.586;10.040;2022-10-16T01:03:58;1.35;;;1.20;;
35679;SDS011;21803;53.586;10.040;2022-10-16T01:06:24;1.85;;;1.20;;
35679;SDS011;21803;53.586;10.040;2022-10-16T01:09:14;2.13;;;1.10;;
35679;SDS011;21803;53.586;10.040;2022-10-16T01:11:57;1.40;;;1.30;;
35679;SDS011;21803;53.586;10.040;2022-10-16T01:14:43;1.75;;;1.30;;
35679;SDS011;21803;53.586;10.040;2022-10-16T01:17:22;3.55;;;1.40;;
35679;SDS011;21803;53.586;10.040;2022-10-16T01:25:20;2.33;;;1.30;;
35679;SDS011;21803;53.586;10.040;2022-10-16T01:27:54;1.38;;;1.10;;
35679;SDS011;21803;53.586;10.040;2022-10-16T01:30:23;1.50;;;1.13;;
35679;SDS011;21803;53.586;10.040;2022-10-16T01:32:54;1.25;;;1.08;;
35679;SDS011;21803;53.586;10.040;2022-10-16T01:40:35;1.38;;;1.13;;
35679;SDS011;21803;53.586;10.040;2022-10-16T01:45:53;1.27;;;1.17;;
35679;SDS011;21803;53.586;10.040;2022-10-16T01:48:19;0.93;;;0.80;;
35679;SDS011;21803;53.586;10.040;2022-10-16T01:50:56;1.35;;;1.10;;
35679;SDS011;21803;53.586;10.040;2022-10-16T01:53:28;1.40;;;1.00;;
35679;SDS011;21803;53.586;10.040;2022-10-16T01:55:55;1.40;;;1.00;;
35679;SDS011;21803;53.586;10.040;2022-10-16T01:58:23;1.27;;;1.00;;
35679;SDS011;21803;53.586;10.040;2022-10-16T02:00:51;1.40;;;1.00;;
35679;SDS011;21803;53.586;10.040;2022-10-16T02:03:18;1.75;;;1.02;;
35679;SDS011;21803;53.586;10.040;2022-10-16T02:05:46;1.23;;;1.00;;
35679;SDS011;21803;53.586;10.040;2022-10-16T02:08:14;1.65;;;0.90;;
35679;SDS011;21803;53.586;10.040;2022-10-16T02:10:40;1.20;;;1.00;;
35679;SDS011;21803;53.586;10.040;2022-10-16T02:13:07;1.05;;;0.75;;
35679;SDS011;21803;53.586;10.040;2022-10-16T02:15:36;1.10;;;0.95;;
35679;SDS011;21803;53.586;10.040;2022-10-16T02:18:03;1.58;;;1.00;;
35679;SDS011;21803;53.586;10.040;2022-10-16T02:20:31;1.20;;;1.02;;
35679;SDS011;21803;53.586;10.040;2022-10-16T02:23:02;1.13;;;0.77;;
35679;SDS011;21803;53.586;10.040;2022-10-16T02:25:32;1.10;;;0.90;;
35679;SDS011;21803;53.586;10.040;2022-10-16T02:28:03;1.08;;;0.98;;
35679;SDS011;21803;53.586;10.040;2022-10-16T02:30:38;1.42;;;1.08;;
35679;SDS011;21803;53.586;10.040;2022-10-16T02:33:08;0.90;;;0.80;;
35679;SDS011;21803;53.586;10.040;2022-10-16T02:35:36;1.17;;;1.08;;
35679;SDS011;21803;53.586;10.040;2022-10-16T02:38:03;1.30;;;0.90;;
35679;SDS011;21803;53.586;10.040;2022-10-16T02:40:30;1.00;;;0.90;;
35679;SDS011;21803;53.586;10.040;2022-10-16T02:42:56;0.93;;;0.82;;
35679;SDS011;21803;53.586;10.040;2022-10-16T02:45:22;1.00;;;0.90;;
35679;SDS011;21803;53.586;10.040;2022-10-16T02:47:48;0.70;;;0.70;;
35679;SDS011;21803;53.586;10.040;2022-10-16T02:50:14;1.05;;;0.93;;
35679;SDS011;21803;53.586;10.040;2022-10-16T02:52:39;0.93;;;0.82;;
35679;SDS011;21803;53.586;10.040;2022-10-16T02:55:05;1.10;;;0.90;;
35679;SDS011;21803;53.586;10.040;2022-10-16T02:57:31;0.80;;;0.80;;
35679;SDS011;21803;53.586;10.040;2022-10-16T02:59:57;0.90;;;0.80;;
35679;SDS011;21803;53.586;10.040;2022-10-16T03:02:23;1.08;;;0.98;;
35679;SDS011;21803;53.586;10.040;2022-10-16T03:04:48;1.00;;;0.90;;
35679;SDS011;21803;53.586;10.040;2022-10-16T03:07:14;0.70;;;0.70;;
35679;SDS011;21803;53.586;10.040;2022-10-16T03:09:40;1.25;;;0.88;;
35679;SDS011;21803;53.586;10.040;2022-10-16T03:12:05;0.73;;;0.73;;
35679;SDS011;21803;53.586;10.040;2022-10-16T03:14:31;0.82;;;0.80;;
35679;SDS011;21803;53.586;10.040;2022-10-16T03:16:57;0.80;;;0.80;;
35679;SDS011;21803;53.586;10.040;2022-10-16T03:19:23;0.98;;;0.90;;
35679;SDS011;21803;53.586;10.040;2022-10-16T03:21:49;0.95;;;0.90;;
35679;SDS011;21803;53.586;10.040;2022-10-16T03:24:14;1.00;;;0.90;;
35679;SDS011;21803;53.586;10.040;2022-10-16T03:26:40;2.25;;;1.00;;
35679;SDS011;21803;53.586;10.040;2022-10-16T03:29:05;0.93;;;0.82;;
35679;SDS011;21803;53.586;10.040;2022-10-16T03:31:31;0.98;;;0.80;;
35679;SDS011;21803;53.586;10.040;2022-10-16T03:33:57;1.00;;;0.90;;
35679;SDS011;21803;53.586;10.040;2022-10-16T03:36:22;1.05;;;0.70;;
35679;SDS011;21803;53.586;10.040;2022-10-16T03:38:48;0.80;;;0.80;;
35679;SDS011;21803;53.586;10.040;2022-10-16T03:41:13;0.95;;;0.80;;
35679;SDS011;21803;53.586;10.040;2022-10-16T03:43:39;1.00;;;0.80;;
35679;SDS011;21803;53.586;10.040;2022-10-16T03:46:04;0.85;;;0.80;;
35679;SDS011;21803;53.586;10.040;2022-10-16T03:48:30;0.82;;;0.80;;
35679;SDS011;21803;53.586;10.040;2022-10-16T03:50:57;0.75;;;0.75;;
35679;SDS011;21803;53.586;10.040;2022-10-16T03:53:22;1.00;;;0.88;;
35679;SDS011;21803;53.586;10.040;2022-10-16T03:55:48;1.45;;;0.60;;
35679;SDS011;21803;53.586;10.040;2022-10-16T03:58:14;0.88;;;0.75;;
35679;SDS011;21803;53.586;10.040;2022-10-16T04:00:40;1.17;;;0.80;;
35679;SDS011;21803;53.586;10.040;2022-10-16T04:03:10;0.90;;;0.77;;
35679;SDS011;21803;53.586;10.040;2022-10-16T04:05:36;0.60;;;0.60;;
35679;SDS011;21803;53.586;10.040;2022-10-16T04:08:02;0.60;;;0.60;;
35679;SDS011;21803;53.586;10.040;2022-10-16T04:10:28;0.90;;;0.70;;
35679;SDS011;21803;53.586;10.040;2022-10-16T04:12:53;0.95;;;0.80;;
35679;SDS011;21803;53.586;10.040;2022-10-16T04:15:21;0.75;;;0.70;;
35679;SDS011;21803;53.586;10.040;2022-10-16T04:17:47;0.70;;;0.70;;
35679;SDS011;21803;53.586;10.040;2022-10-16T04:20:12;0.88;;;0.70;;
35679;SDS011;21803;53.586;10.040;2022-10-16T04:22:38;0.70;;;0.60;;
35679;SDS011;21803;53.586;10.040;2022-10-16T04:25:04;0.70;;;0.70;;
35679;SDS011;21803;53.586;10.040;2022-10-16T04:27:30;0.90;;;0.70;;
35679;SDS011;21803;53.586;10.040;2022-10-16T04:29:56;0.60;;;0.60;;
35679;SDS011;21803;53.586;10.040;2022-10-16T04:32:22;0.95;;;0.73;;
35679;SDS011;21803;53.586;10.040;2022-10-16T04:34:48;0.70;;;0.70;;
35679;SDS011;21803;53.586;10.040;2022-10-16T04:37:13;0.70;;;0.70;;
35679;SDS011;21803;53.586;10.040;2022-10-16T04:39:39;1.15;;;0.80;;
35679;SDS011;21803;53.586;10.040;2022-10-16T04:42:04;0.60;;;0.60;;
35679;SDS011;21803;53.586;10.040;2022-10-16T04:44:30;0.93;;;0.82;;
35679;SDS011;21803;53.586;10.040;2022-10-16T04:46:55;0.82;;;0.80;;
35679;SDS011;21803;53.586;10.040;2022-10-16T04:49:21;0.73;;;0.73;;
35679;SDS011;21803;53.586;10.040;2022-10-16T04:51:46;0.90;;;0.80;;
35679;SDS011;21803;53.586;10.040;2022-10-16T04:54:12;0.70;;;0.60;;
35679;SDS011;21803;53.586;10.040;2022-10-16T04:56:38;0.52;;;0.52;;
35679;SDS011;21803;53.586;10.040;2022-10-16T04:59:11;0.70;;;0.70;;
35679;SDS011;21803;53.586;10.040;2022-10-16T05:01:37;1.98;;;0.68;;
35679;SDS011;21803;53.586;10.040;2022-10-16T05:04:02;0.73;;;0.68;;
35679;SDS011;21803;53.586;10.040;2022-10-16T05:06:28;0.60;;;0.60;;
35679;SDS011;21803;53.586;10.040;2022-10-16T05:08:53;0.55;;;0.50;;
35679;SDS011;21803;53.586;10.040;2022-10-16T05:11:19;1.00;;;0.70;;
35679;SDS011;21803;53.586;10.040;2022-10-16T05:13:44;0.60;;;0.60;;
35679;SDS011;21803;53.586;10.040;2022-10-16T05:16:10;0.73;;;0.73;;
35679;SDS011;21803;53.586;10.040;2022-10-16T05:18:36;1.25;;;0.60;;
35679;SDS011;21803;53.586;10.040;2022-10-16T05:21:01;0.60;;;0.60;;
35679;SDS011;21803;53.586;10.040;2022-10-16T05:23:27;0.60;;;0.60;;
35679;SDS011;21803;53.586;10.040;2022-10-16T05:25:56;1.15;;;0.80;;
35679;SDS011;21803;53.586;10.040;2022-10-16T05:28:26;0.63;;;0.60;;
35679;SDS011;21803;53.586;10.040;2022-10-16T05:30:53;0.60;;;0.60;;
35679;SDS011;21803;53.586;10.040;2022-10-16T05:33:22;0.57;;;0.57;;
35679;SDS011;21803;53.586;10.040;2022-10-16T05:35:49;0.63;;;0.63;;
35679;SDS011;21803;53.586;10.040;2022-10-16T05:38:15;0.80;;;0.77;;
35679;SDS011;21803;53.586;10.040;2022-10-16T05:40:41;0.75;;;0.75;;
35679;SDS011;21803;53.586;10.040;2022-10-16T05:43:07;0.90;;;0.73;;
35679;SDS011;21803;53.586;10.040;2022-10-16T05:45:32;0.60;;;0.60;;
35679;SDS011;21803;53.586;10.040;2022-10-16T05:47:59;0.60;;;0.60;;
35679;SDS011;21803;53.586;10.040;2022-10-16T05:50:24;0.85;;;0.80;;
35679;SDS011;21803;53.586;10.040;2022-10-16T05:52:50;0.70;;;0.70;;
35679;SDS011;21803;53.586;10.040;2022-10-16T05:55:15;0.80;;;0.60;;
35679;SDS011;21803;53.586;10.040;2022-10-16T05:57:41;1.02;;;0.70;;
35679;SDS011;21803;53.586;10.040;2022-10-16T06:00:06;0.68;;;0.60;;
35679;SDS011;21803;53.586;10.040;2022-10-16T06:02:32;0.70;;;0.70;;
35679;SDS011;21803;53.586;10.040;2022-10-16T06:04:58;0.60;;;0.60;;
35679;SDS011;21803;53.586;10.040;2022-10-16T06:07:23;0.50;;;0.50;;
35679;SDS011;21803;53.586;10.040;2022-10-16T06:09:50;0.70;;;0.60;;
35679;SDS011;21803;53.586;10.040;2022-10-16T06:12:16;0.60;;;0.60;;
35679;SDS011;21803;53.586;10.040;2022-10-16T06:14:42;0.50;;;0.50;;
35679;SDS011;21803;53.586;10.040;2022-10-16T06:17:09;1.08;;;0.70;;
35679;SDS011;21803;53.586;10.040;2022-10-16T06:19:34;0.55;;;0.50;;
35679;SDS011;21803;53.586;10.040;2022-10-16T06:22:00;0.60;;;0.60;;
35679;SDS011;21803;53.586;10.040;2022-10-16T06:24:27;0.60;;;0.60;;
35679;SDS011;21803;53.586;10.040;2022-10-16T06:26:53;0.80;;;0.60;;
35679;SDS011;21803;53.586;10.040;2022-10-16T06:29:18;2.15;;;1.15;;
35679;SDS011;21803;53.586;10.040;2022-10-16T06:31:44;0.60;;;0.60;;
35679;SDS011;21803;53.586;10.040;2022-10-16T06:34:09;0.60;;;0.60;;
35679;SDS011;21803;53.586;10.040;2022-10-16T06:36:36;1.25;;;0.88;;
35679;SDS011;21803;53.586;10.040;2022-10-16T06:39:03;0.60;;;0.60;;
35679;SDS011;21803;53.586;10.040;2022-10-16T06:41:28;0.47;;;0.47;;
35679;SDS011;21803;53.586;10.040;2022-10-16T06:43:54;0.68;;;0.68;;
35679;SDS011;21803;53.586;10.040;2022-10-16T06:46:20;0.80;;;0.57;;
35679;SDS011;21803;53.586;10.040;2022-10-16T06:48:47;0.60;;;0.60;;
35679;SDS011;21803;53.586;10.040;2022-10-16T06:51:14;0.43;;;0.43;;
35679;SDS011;21803;53.586;10.040;2022-10-16T06:53:43;0.50;;;0.50;;
35679;SDS011;21803;53.586;10.040;2022-10-16T06:56:11;1.15;;;0.77;;
35679;SDS011;21803;53.586;10.040;2022-10-16T06:58:38;0.60;;;0.60;;
35679;SDS011;21803;53.586;10.040;2022-10-16T07:01:04;0.50;;;0.50;;
35679;SDS011;21803;53.586;10.040;2022-10-16T07:03:30;0.60;;;0.60;;
35679;SDS011;21803;53.586;10.040;2022-10-16T07:05:56;1.13;;;0.70;;
35679;SDS011;21803;53.586;10.040;2022-10-16T07:08:22;0.60;;;0.60;;
35679;SDS011;21803;53.586;10.040;2022-10-16T07:10:47;0.57;;;0.52;;
35679;SDS011;21803;53.586;10.040;2022-10-16T07:13:13;0.70;;;0.70;;
35679;SDS011;21803;53.586;10.040;2022-10-16T07:15:39;0.40;;;0.40;;
35679;SDS011;21803;53.586;10.040;2022-10-16T07:18:06;0.77;;;0.60;;
35679;SDS011;21803;53.586;10.040;2022-10-16T07:20:31;0.40;;;0.40;;
35679;SDS011;21803;53.586;10.040;2022-10-16T07:22:57;0.65;;;0.65;;
35679;SDS011;21803;53.586;10.040;2022-10-16T07:25:23;0.63;;;0.50;;
35679;SDS011;21803;53.586;10.040;2022-10-16T07:27:48;0.60;;;0.52;;
35679;SDS011;21803;53.586;10.040;2022-10-16T07:30:14;0.80;;;0.60;;
35679;SDS011;21803;53.586;10.040;2022-10-16T07:32:39;0.70;;;0.70;;
35679;SDS011;21803;53.586;10.040;2022-10-16T07:35:05;0.43;;;0.43;;
35679;SDS011;21803;53.586;10.040;2022-10-16T07:37:31;0.50;;;0.50;;
35679;SDS011;21803;53.586;10.040;2022-10-16T07:39:56;0.50;;;0.50;;
35679;SDS011;21803;53.586;10.040;2022-10-16T07:42:22;0.70;;;0.60;;
35679;SDS011;21803;53.586;10.040;2022-10-16T07:44:47;0.60;;;0.60;;
35679;SDS011;21803;53.586;10.040;2022-10-16T07:47:13;0.90;;;0.60;;
35679;SDS011;21803;53.586;10.040;2022-10-16T07:49:38;0.75;;;0.70;;
35679;SDS011;21803;53.586;10.040;2022-10-16T07:52:04;0.50;;;0.50;;
35679;SDS011;21803;53.586;10.040;2022-10-16T07:54:29;0.50;;;0.50;;
35679;SDS011;21803;53.586;10.040;2022-10-16T07:56:55;0.60;;;0.60;;
35679;SDS011;21803;53.586;10.040;2022-10-16T07:59:20;0.52;;;0.50;;
35679;SDS011;21803;53.586;10.040;2022-10-16T08:01:46;0.60;;;0.50;;
35679;SDS011;21803;53.586;10.040;2022-10-16T08:04:13;0.50;;;0.50;;
35679;SDS011;21803;53.586;10.040;2022-10-16T08:06:39;0.55;;;0.50;;
35679;SDS011;21803;53.586;10.040;2022-10-16T08:09:05;0.57;;;0.57;;
35679;SDS011;21803;53.586;10.040;2022-10-16T08:11:32;0.50;;;0.50;;
35679;SDS011;21803;53.586;10.040;2022-10-16T08:13:58;0.50;;;0.50;;
35679;SDS011;21803;53.586;10.040;2022-10-16T08:16:23;0.38;;;0.38;;
35679;SDS011;21803;53.586;10.040;2022-10-16T08:18:49;0.85;;;0.63;;
35679;SDS011;21803;53.586;10.040;2022-10-16T08:21:17;0.50;;;0.50;;
35679;SDS011;21803;53.586;10.040;2022-10-16T08:23:44;0.70;;;0.60;;
35679;SDS011;21803;53.586;10.040;2022-10-16T08:26:10;0.50;;;0.50;;
35679;SDS011;21803;53.586;10.040;2022-10-16T08:28:37;0.98;;;0.40;;
35679;SDS011;21803;53.586;10.040;2022-10-16T08:31:10;0.82;;;0.70;;
35679;SDS011;21803;53.586;10.040;2022-10-16T08:33:41;0.57;;;0.57;;
35679;SDS011;21803;53.586;10.040;2022-10-16T08:36:08;0.40;;;0.40;;
35679;SDS011;21803;53.586;10.040;2022-10-16T08:38:35;0.70;;;0.60;;
35679;SDS011;21803;53.586;10.040;2022-10-16T08:41:04;0.55;;;0.50;;
35679;SDS011;21803;53.586;10.040;2022-10-16T08:49:13;0.60;;;0.60;;
35679;SDS011;21803;53.586;10.040;2022-10-16T08:51:39;0.65;;;0.57;;
35679;SDS011;21803;53.586;10.040;2022-10-16T08:54:11;0.88;;;0.60;;
35679;SDS011;21803;53.586;10.040;2022-10-16T08:56:55;0.60;;;0.60;;
35679;SDS011;21803;53.586;10.040;2022-10-16T08:59:21;0.45;;;0.45;;
35679;SDS011;21803;53.586;10.040;2022-10-16T09:01:47;0.82;;;0.57;;
35679;SDS011;21803;53.586;10.040;2022-10-16T09:04:34;0.50;;;0.50;;
35679;SDS011;21803;53.586;10.040;2022-10-16T09:07:25;0.40;;;0.40;;
35679;SDS011;21803;53.586;10.040;2022-10-16T09:18:12;0.57;;;0.55;;
35679;SDS011;21803;53.586;10.040;2022-10-16T09:20:50;2.22;;;0.50;;
35679;SDS011;21803;53.586;10.040;2022-10-16T09:23:34;1.23;;;0.60;;
35679;SDS011;21803;53.586;10.040;2022-10-16T09:26:01;0.85;;;0.50;;
35679;SDS011;21803;53.586;10.040;2022-10-16T09:28:28;0.57;;;0.40;;
35679;SDS011;21803;53.586;10.040;2022-10-16T09:30:54;0.63;;;0.60;;
35679;SDS011;21803;53.586;10.040;2022-10-16T09:33:21;0.63;;;0.52;;
35679;SDS011;21803;53.586;10.040;2022-10-16T09:35:53;0.50;;;0.50;;
35679;SDS011;21803;53.586;10.040;2022-10-16T09:41:16;2.70;;;0.60;;
35679;SDS011;21803;53.586;10.040;2022-10-16T09:43:41;0.93;;;0.65;;
35679;SDS011;21803;53.586;10.040;2022-10-16T09:46:22;0.50;;;0.50;;
35679;SDS011;21803;53.586;10.040;2022-10-16T09:48:54;0.45;;;0.40;;
35679;SDS011;21803;53.586;10.040;2022-10-16T09:53:59;0.40;;;0.40;;
35679;SDS011;21803;53.586;10.040;2022-10-16T09:58:58;0.40;;;0.40;;
35679;SDS011;21803;53.586;10.040;2022-10-16T10:01:28;1.20;;;0.60;;
35679;SDS011;21803;53.586;10.040;2022-10-16T10:04:15;0.40;;;0.40;;
35679;SDS011;21803;53.586;10.040;2022-10-16T10:06:49;1.00;;;0.70;;
35679;SDS011;21803;53.586;10.040;2022-10-16T10:09:25;0.98;;;0.50;;
35679;SDS011;21803;53.586;10.040;2022-10-16T10:11:55;0.95;;;0.60;;
35679;SDS011;21803;53.586;10.040;2022-10-16T10:14:32;0.70;;;0.50;;
35679;SDS011;21803;53.586;10.040;2022-10-16T10:19:38;0.57;;;0.57;;
35679;SDS011;21803;53.586;10.040;2022-10-16T10:22:19;0.50;;;0.50;;
35679;SDS011;21803;53.586;10.040;2022-10-16T10:27:40;1.58;;;0.50;;
35679;SDS011;21803;53.586;10.040;2022-10-16T10:35:24;1.25;;;0.50;;
35679;SDS011;21803;53.586;10.040;2022-10-16T10:38:11;1.85;;;0.60;;
35679;SDS011;21803;53.586;10.040;2022-10-16T10:44:01;1.20;;;0.57;;
35679;SDS011;21803;53.586;10.040;2022-10-16T10:46:07;0.63;;;0.52;;
35679;SDS011;21803;53.586;10.040;2022-10-16T10:51:28;0.80;;;0.52;;
35679;SDS011;21803;53.586;10.040;2022-10-16T10:57:02;0.73;;;0.70;;
35679;SDS011;21803;53.586;10.040;2022-10-16T11:07:48;0.50;;;0.50;;
35679;SDS011;21803;53.586;10.040;2022-10-16T11:10:21;0.60;;;0.60;;
35679;SDS011;21803;53.586;10.040;2022-10-16T11:12:52;1.05;;;0.60;;
35679;SDS011;21803;53.586;10.040;2022-10-16T11:15:25;2.38;;;0.60;;
35679;SDS011;21803;53.586;10.040;2022-10-16T11:17:57;1.45;;;0.70;;
35679;SDS011;21803;53.586;10.040;2022-10-16T11:20:41;1.60;;;0.75;;
35679;SDS011;21803;53.586;10.040;2022-10-16T11:23:21;0.68;;;0.60;;
35679;SDS011;21803;53.586;10.040;2022-10-16T11:26:00;0.80;;;0.63;;
35679;SDS011;21803;53.586;10.040;2022-10-16T11:28:37;1.33;;;0.70;;
35679;SDS011;21803;53.586;10.040;2022-10-16T11:31:13;0.75;;;0.50;;
35679;SDS011;21803;53.586;10.040;2022-10-16T11:39:09;1.40;;;0.68;;
35679;SDS011;21803;53.586;10.040;2022-10-16T11:41:45;0.60;;;0.50;;
35679;SDS011;21803;53.586;10.040;2022-10-16T11:50:04;3.03;;;0.70;;
35679;SDS011;21803;53.586;10.040;2022-10-16T11:55:31;5.00;;;0.70;;
35679;SDS011;21803;53.586;10.040;2022-10-16T11:58:08;0.85;;;0.60;;
35679;SDS011;21803;53.586;10.040;2022-10-16T12:00:47;0.60;;;0.50;;
35679;SDS011;21803;53.586;10.040;2022-10-16T12:06:06;0.55;;;0.50;;
35679;SDS011;21803;53.586;10.040;2022-10-16T12:09:02;1.15;;;0.60;;
35679;SDS011;21803;53.586;10.040;2022-10-16T12:14:39;1.02;;;0.68;;
35679;SDS011;21803;53.586;10.040;2022-10-16T12:19:17;0.50;;;0.50;;
35679;SDS011;21803;53.586;10.040;2022-10-16T12:21:43;1.33;;;0.60;;
35679;SDS011;21803;53.586;10.040;2022-10-16T12:24:20;0.60;;;0.60;;
35679;SDS011;21803;53.586;10.040;2022-10-16T12:26:46;1.05;;;0.65;;
35679;SDS011;21803;53.586;10.040;2022-10-16T12:32:00;1.15;;;0.80;;
35679;SDS011;21803;53.586;10.040;2022-10-16T12:37:23;2.00;;;0.50;;
35679;SDS011;21803;53.586;10.040;2022-10-16T12:39:51;1.23;;;0.60;;
35679;SDS011;21803;53.586;10.040;2022-10-16T12:42:24;1.45;;;0.60;;
35679;SDS011;21803;53.586;10.040;2022-10-16T12:44:58;0.80;;;0.60;;
35679;SDS011;21803;53.586;10.040;2022-10-16T12:49:56;0.70;;;0.60;;
35679;SDS011;21803;53.586;10.040;2022-10-16T12:52:23;2.20;;;0.70;;
35679;SDS011;21803;53.586;10.040;2022-10-16T12:54:51;1.95;;;0.60;;
35679;SDS011;21803;53.586;10.040;2022-10-16T12:57:30;2.60;;;0.70;;
35679;SDS011;21803;53.586;10.040;2022-10-16T13:05:25;1.70;;;0.60;;
35679;SDS011;21803;53.586;10.040;2022-10-16T13:21:53;1.02;;;0.52;;
35679;SDS011;21803;53.586;10.040;2022-10-16T13:29:52;0.60;;;0.50;;
35679;SDS011;21803;53.586;10.040;2022-10-16T13:32:20;1.33;;;0.50;;
35679;SDS011;21803;53.586;10.040;2022-10-16T13:34:46;0.93;;;0.68;;
35679;SDS011;21803;53.586;10.040;2022-10-16T13:37:17;1.13;;;0.52;;
35679;SDS011;21803;53.586;10.040;2022-10-16T13:39:44;1.77;;;0.70;;
35679;SDS011;21803;53.586;10.040;2022-10-16T13:42:16;0.52;;;0.50;;
35679;SDS011;21803;53.586;10.040;2022-10-16T13:44:54;0.50;;;0.50;;
35679;SDS011;21803;53.586;10.040;2022-10-16T13:47:21;1.00;;;0.60;;
35679;SDS011;21803;53.586;10.040;2022-10-16T13:50:05;2.00;;;0.70;;
35679;SDS011;21803;53.586;10.040;2022-10-16T13:52:36;0.93;;;0.70;;
35679;SDS011;21803;53.586;10.040;2022-10-16T13:55:03;1.05;;;0.57;;
35679;SDS011;21803;53.586;10.040;2022-10-16T13:57:29;0.93;;;0.60;;
35679;SDS011;21803;53.586;10.040;2022-10-16T13:59:55;0.70;;;0.60;;
35679;SDS011;21803;53.586;10.040;2022-10-16T14:05:04;0.93;;;0.65;;
35679;SDS011;21803;53.586;10.040;2022-10-16T14:07:34;1.98;;;0.60;;
35679;SDS011;21803;53.586;10.040;2022-10-16T14:10:05;0.50;;;0.43;;
35679;SDS011;21803;53.586;10.040;2022-10-16T14:12:43;2.25;;;0.60;;
35679;SDS011;21803;53.586;10.040;2022-10-16T14:15:15;0.88;;;0.55;;
35679;SDS011;21803;53.586;10.040;2022-10-16T14:17:43;0.70;;;0.40;;
35679;SDS011;21803;53.586;10.040;2022-10-16T14:20:14;1.63;;;0.50;;
35679;SDS011;21803;53.586;10.040;2022-10-16T14:22:41;0.45;;;0.45;;
35679;SDS011;21803;53.586;10.040;2022-10-16T14:27:45;2.90;;;0.60;;
35679;SDS011;21803;53.586;10.040;2022-10-16T14:30:21;0.77;;;0.50;;
35679;SDS011;21803;53.586;10.040;2022-10-16T14:32:57;0.82;;;0.50;;
35679;SDS011;21803;53.586;10.040;2022-10-16T14:35:32;1.98;;;0.70;;
35679;SDS011;21803;53.586;10.040;2022-10-16T14:38:03;0.70;;;0.50;;
35679;SDS011;21803;53.586;10.040;2022-10-16T14:40:30;0.73;;;0.50;;
35679;SDS011;21803;53.586;10.040;2022-10-16T14:43:01;0.77;;;0.47;;
35679;SDS011;21803;53.586;10.040;2022-10-16T14:45:30;0.70;;;0.50;;
35679;SDS011;21803;53.586;10.040;2022-10-16T14:47:58;1.17;;;0.50;;
35679;SDS011;21803;53.586;10.040;2022-10-16T14:50:26;0.68;;;0.63;;
35679;SDS011;21803;53.586;10.040;2022-10-16T14:52:51;1.05;;;0.60;;
35679;SDS011;21803;53.586;10.040;2022-10-16T14:55:17;0.63;;;0.52;;
35679;SDS011;21803;53.586;10.040;2022-10-16T14:57:43;1.05;;;0.60;;
35679;SDS011;21803;53.586;10.040;2022-10-16T15:00:15;1.48;;;0.52;;
35679;SDS011;21803;53.586;10.040;2022-10-16T15:02:48;1.77;;;0.60;;
35679;SDS011;21803;53.586;10.040;2022-10-16T15:05:22;0.60;;;0.60;;
35679;SDS011;21803;53.586;10.040;2022-10-16T15:07:50;2.42;;;0.70;;
35679;SDS011;21803;53.586;10.040;2022-10-16T15:10:16;1.63;;;0.50;;
35679;SDS011;21803;53.586;10.040;2022-10-16T15:12:43;1.27;;;0.50;;
35679;SDS011;21803;53.586;10.040;2022-10-16T15:17:59;0.95;;;0.65;;
35679;SDS011;21803;53.586;10.040;2022-10-16T15:20:26;1.60;;;0.57;;
35679;SDS011;21803;53.586;10.040;2022-10-16T15:22:53;0.75;;;0.60;;
35679;SDS011;21803;53.586;10.040;2022-10-16T15:27:54;1.10;;;0.50;;
35679;SDS011;21803;53.586;10.040;2022-10-16T15:30:19;1.17;;;0.50;;
35679;SDS011;21803;53.586;10.040;2022-10-16T15:32:44;0.95;;;0.60;;
35679;SDS011;21803;53.586;10.040;2022-10-16T15:35:10;1.13;;;0.50;;
35679;SDS011;21803;53.586;10.040;2022-10-16T15:37:36;1.00;;;0.60;;
35679;SDS011;21803;53.586;10.040;2022-10-16T15:40:01;1.70;;;0.57;;
35679;SDS011;21803;53.586;10.040;2022-10-16T15:42:27;2.25;;;0.60;;
35679;SDS011;21803;53.586;10.040;2022-10-16T15:44:53;0.70;;;0.50;;
35679;SDS011;21803;53.586;10.040;2022-10-16T15:47:18;1.67;;;0.50;;
35679;SDS011;21803;53.586;10.040;2022-10-16T15:49:44;0.68;;;0.60;;
35679;SDS011;21803;53.586;10.040;2022-10-16T15:52:10;1.08;;;0.50;;
35679;SDS011;21803;53.586;10.040;2022-10-16T15:54:36;1.75;;;0.50;;
35679;SDS011;21803;53.586;10.040;2022-10-16T15:57:01;2.55;;;0.70;;
35679;SDS011;21803;53.586;10.040;2022-10-16T15:59:27;1.60;;;0.80;;
35679;SDS011;21803;53.586;10.040;2022-10-16T16:01:52;1.27;;;0.82;;
35679;SDS011;21803;53.586;10.040;2022-10-16T16:04:18;2.85;;;0.60;;
35679;SDS011;21803;53.586;10.040;2022-10-16T16:06:43;0.90;;;0.70;;
35679;SDS011;21803;53.586;10.040;2022-10-16T16:09:12;0.60;;;0.45;;
35679;SDS011;21803;53.586;10.040;2022-10-16T16:11:38;2.03;;;0.60;;
35679;SDS011;21803;53.586;10.040;2022-10-16T16:14:04;2.28;;;0.60;;
35679;SDS011;21803;53.586;10.040;2022-10-16T16:16:31;1.00;;;0.60;;
35679;SDS011;21803;53.586;10.040;2022-10-16T16:19:01;1.48;;;0.80;;
35679;SDS011;21803;53.586;10.040;2022-10-16T16:21:28;1.00;;;0.52;;
35679;SDS011;21803;53.586;10.040;2022-10-16T16:23:54;2.17;;;0.50;;
35679;SDS011;21803;53.586;10.040;2022-10-16T16:26:23;0.70;;;0.50;;
35679;SDS011;21803;53.586;10.040;2022-10-16T16:28:51;2.05;;;0.88;;
35679;SDS011;21803;53.586;10.040;2022-10-16T16:31:18;1.38;;;0.60;;
35679;SDS011;21803;53.586;10.040;2022-10-16T16:33:44;1.05;;;0.55;;
35679;SDS011;21803;53.586;10.040;2022-10-16T16:36:10;1.40;;;0.68;;
35679;SDS011;21803;53.586;10.040;2022-10-16T16:38:35;1.42;;;0.57;;
35679;SDS011;21803;53.586;10.040;2022-10-16T16:41:22;0.60;;;0.45;;
35679;SDS011;21803;53.586;10.040;2022-10-16T16:43:49;0.50;;;0.40;;
35679;SDS011;21803;53.586;10.040;2022-10-16T16:46:18;1.42;;;0.57;;
35679;SDS011;21803;53.586;10.040;2022-10-16T16:48:44;0.35;;;0.35;;
35679;SDS011;21803;53.586;10.040;2022-10-16T16:51:14;3.47;;;0.50;;
35679;SDS011;21803;53.586;10.040;2022-10-16T16:53:43;1.35;;;0.80;;